Time;durP1;ratioP1;P1;durP2;ratioP2;P2;SDS_P1;SDS_P2;PMS_P1;PMS_P2;Temp;Humidity;BMP_temperature;BMP_pressure;BME280_temperature;BME280_humidity;BME280_pressure;Samples;Min_cycle;Max_cycle;Signal;HPM_P1;HPM_P2
2022/12/16 00:00:11;;;;;;;15.98;9.27;;;-3.30;99.90;;;;;;5058846;28;20046;-71
2022/12/16 00:02:36;;;;;;;19.55;9.80;;;-3.20;99.90;;;;;;5047898;28;20032;-72
2022/12/16 00:05:03;;;;;;;18.60;9.93;;;-3.10;99.90;;;;;;5051376;28;20078;-72
2022/12/16 00:07:29;;;;;;;17.45;9.93;;;-3.10;99.90;;;;;;5051366;28;20028;-73
2022/12/16 00:09:54;;;;;;;16.80;8.63;;;-3.10;99.90;;;;;;5055081;28;20036;-72
2022/12/16 00:12:20;;;;;;;16.80;9.60;;;-3.10;99.90;;;;;;5055382;28;20025;-72
2022/12/16 00:14:45;;;;;;;23.55;10.73;;;-3.00;99.90;;;;;;5055185;28;20503;-72
2022/12/16 00:17:11;;;;;;;17.73;9.60;;;-3.00;99.90;;;;;;5051360;28;20449;-71
2022/12/16 00:19:37;;;;;;;22.15;10.25;;;-2.90;99.90;;;;;;5052601;28;20024;-72
2022/12/16 00:22:02;;;;;;;14.90;9.25;;;-2.90;99.90;;;;;;5042791;28;20032;-72
2022/12/16 00:24:30;;;;;;;17.95;9.13;;;-2.80;99.90;;;;;;5054734;28;20036;-72
2022/12/16 00:26:56;;;;;;;18.10;10.02;;;-2.70;99.90;;;;;;5058541;28;20047;-72
2022/12/16 00:29:22;;;;;;;17.80;8.82;;;-2.70;99.90;;;;;;5056599;28;20535;-72
2022/12/16 00:31:48;;;;;;;18.15;9.30;;;-2.70;99.90;;;;;;5056640;28;20019;-72
2022/12/16 00:34:15;;;;;;;16.30;8.88;;;-2.60;99.90;;;;;;5055514;28;20035;-72
2022/12/16 00:36:41;;;;;;;20.27;10.10;;;-2.70;99.90;;;;;;5034529;28;20487;-72
2022/12/16 00:39:06;;;;;;;19.33;9.73;;;-2.70;99.90;;;;;;5058483;28;20158;-72
2022/12/16 00:41:32;;;;;;;19.92;9.88;;;-2.70;99.90;;;;;;5048838;28;20108;-72
2022/12/16 00:43:57;;;;;;;21.38;9.63;;;-2.70;99.90;;;;;;5052109;28;20040;-71
2022/12/16 00:46:23;;;;;;;20.33;9.82;;;-2.80;99.90;;;;;;5048592;28;20090;-73
2022/12/16 00:48:49;;;;;;;18.33;10.00;;;-2.70;99.90;;;;;;5035508;28;20097;-71
2022/12/16 00:51:14;;;;;;;17.92;9.38;;;-2.70;99.90;;;;;;5045004;28;20142;-72
2022/12/16 00:53:40;;;;;;;15.73;8.95;;;-2.80;99.90;;;;;;5045619;28;20054;-72
2022/12/16 00:56:08;;;;;;;20.23;9.63;;;-2.80;99.90;;;;;;5050601;28;20391;-72
2022/12/16 00:58:34;;;;;;;17.73;9.43;;;-2.80;99.90;;;;;;5054613;28;20029;-72
2022/12/16 01:01:00;;;;;;;18.05;9.63;;;-2.80;99.90;;;;;;5061049;28;20062;-72
2022/12/16 01:03:26;;;;;;;14.18;9.30;;;-2.90;99.90;;;;;;5048156;28;20028;-72
2022/12/16 01:05:52;;;;;;;16.20;8.63;;;-3.00;99.90;;;;;;5045980;28;20029;-72
2022/12/16 01:08:18;;;;;;;18.92;10.05;;;-3.00;99.90;;;;;;5055416;28;20028;-72
2022/12/16 01:10:50;;;;;;;18.52;9.85;;;-3.00;99.90;;;;;;5057550;28;20048;-73
2022/12/16 01:13:15;;;;;;;20.83;10.63;;;-3.00;99.90;;;;;;5060958;28;20031;-72
2022/12/16 01:15:41;;;;;;;16.42;8.93;;;-3.00;99.90;;;;;;5059683;28;20024;-72
2022/12/16 01:18:07;;;;;;;15.10;9.23;;;-3.10;99.90;;;;;;5047371;28;20044;-72
2022/12/16 01:20:33;;;;;;;19.23;9.38;;;-3.00;99.90;;;;;;5057294;28;20107;-72
2022/12/16 01:22:59;;;;;;;19.80;9.25;;;-3.00;99.90;;;;;;5053779;28;20519;-72
2022/12/16 01:25:25;;;;;;;15.73;9.15;;;-3.00;99.90;;;;;;5059789;28;20040;-72
2022/12/16 01:27:50;;;;;;;19.67;9.60;;;-3.00;99.90;;;;;;5053990;28;20540;-72
2022/12/16 01:30:16;;;;;;;18.63;9.35;;;-3.00;99.90;;;;;;5048349;28;20115;-71
2022/12/16 01:32:42;;;;;;;19.25;9.00;;;-2.90;99.90;;;;;;5057843;28;20074;-72
2022/12/16 01:35:09;;;;;;;16.95;9.55;;;-3.00;99.90;;;;;;5058311;28;20296;-72
2022/12/16 01:37:34;;;;;;;17.10;9.00;;;-2.90;99.90;;;;;;5055731;28;20317;-72
2022/12/16 01:40:00;;;;;;;17.52;8.90;;;-2.90;99.90;;;;;;5049267;28;20089;-72
2022/12/16 01:42:29;;;;;;;18.25;10.10;;;-2.90;99.90;;;;;;5053872;28;20522;-72
2022/12/16 01:44:56;;;;;;;19.05;8.90;;;-2.90;99.90;;;;;;5044476;28;20040;-72
2022/12/16 01:47:29;;;;;;;18.65;9.25;;;-2.90;99.90;;;;;;5050550;28;20063;-72
2022/12/16 01:50:01;;;;;;;13.05;8.23;;;-2.90;99.90;;;;;;5049814;28;20068;-72
2022/12/16 01:52:33;;;;;;;;;;;-3.00;99.90;;;;;;5060594;28;20040;-72
2022/12/16 01:55:08;;;;;;;13.30;8.60;;;-3.00;99.90;;;;;;5055714;28;19928;-71
2022/12/16 01:57:44;;;;;;;19.63;9.02;;;-3.00;99.90;;;;;;5054309;28;20207;-72
2022/12/16 02:00:11;;;;;;;17.48;8.52;;;-3.10;99.90;;;;;;5057776;28;20991;-72
2022/12/16 02:02:37;;;;;;;19.50;8.75;;;-3.00;99.90;;;;;;5057636;28;20024;-72
2022/12/16 02:05:21;;;;;;;15.55;7.40;;;-3.10;99.90;;;;;;5053156;28;20139;-72
2022/12/16 02:08:05;;;;;;;15.65;8.43;;;-3.10;99.90;;;;;;5051949;28;20487;-72
2022/12/16 02:10:42;;;;;;;14.82;8.07;;;-3.20;99.90;;;;;;5055784;28;20114;-72
2022/12/16 02:13:08;;;;;;;15.30;7.40;;;-3.30;99.90;;;;;;5058856;28;20475;-72
2022/12/16 02:15:41;;;;;;;16.13;8.90;;;-3.40;99.90;;;;;;5059312;28;20051;-72
2022/12/16 02:18:45;;;;;;;15.10;7.60;;;-3.40;99.90;;;;;;5057879;28;20060;-72
2022/12/16 02:21:22;;;;;;;15.18;8.48;;;-3.40;99.90;;;;;;5062077;28;20438;-71
2022/12/16 02:24:07;;;;;;;12.82;7.82;;;-3.40;99.90;;;;;;5058255;28;20036;-72
2022/12/16 02:26:54;;;;;;;11.07;7.50;;;-3.40;99.90;;;;;;5052412;28;20384;-71
2022/12/16 02:29:48;;;;;;;17.73;9.25;;;-3.40;99.90;;;;;;5056082;28;20028;-72
2022/12/16 02:32:20;;;;;;;16.35;8.10;;;-3.30;99.90;;;;;;5057515;28;20773;-72
2022/12/16 02:35:07;;;;;;;19.48;8.77;;;-3.30;99.90;;;;;;5046796;28;20025;-72
2022/12/16 02:37:54;;;;;;;22.45;8.25;;;-3.20;99.90;;;;;;5046867;28;20086;-72
2022/12/16 02:40:34;;;;;;;20.10;8.05;;;-3.20;99.90;;;;;;5058122;28;20172;-72
2022/12/16 02:43:06;;;;;;;13.73;7.97;;;-3.20;99.90;;;;;;5056767;28;20086;-72
2022/12/16 02:45:34;;;;;;;16.17;8.85;;;-3.20;99.90;;;;;;5057598;28;20040;-71
2022/12/16 02:47:59;;;;;;;15.43;9.15;;;-3.20;99.90;;;;;;5065506;28;20051;-71
2022/12/16 02:50:39;;;;;;;16.40;8.70;;;-3.20;99.90;;;;;;5049019;28;20120;-72
2022/12/16 02:53:06;;;;;;;15.25;8.70;;;-3.20;99.90;;;;;;5046946;28;20159;-72
2022/12/16 02:55:45;;;;;;;18.80;8.68;;;-3.20;99.90;;;;;;5050806;28;20455;-72
2022/12/16 02:58:29;;;;;;;18.20;8.57;;;-3.20;99.90;;;;;;5050541;28;20044;-71
2022/12/16 03:01:04;;;;;;;17.85;8.50;;;-3.10;99.90;;;;;;5061919;28;20051;-72
2022/12/16 03:03:42;;;;;;;16.83;8.23;;;-3.10;99.90;;;;;;5059703;28;20044;-72
2022/12/16 03:06:10;;;;;;;15.35;8.30;;;-3.10;99.90;;;;;;5050793;28;20041;-72
2022/12/16 03:08:39;;;;;;;13.45;8.25;;;-3.10;99.90;;;;;;5052311;28;20028;-72
2022/12/16 03:11:08;;;;;;;13.07;7.85;;;-3.00;99.90;;;;;;5052370;28;20024;-72
2022/12/16 03:13:51;;;;;;;19.70;8.48;;;-3.00;99.90;;;;;;5046697;28;20032;-72
2022/12/16 03:16:21;;;;;;;15.60;8.38;;;-3.00;99.90;;;;;;5055122;28;20022;-72
2022/12/16 03:18:53;;;;;;;17.40;8.70;;;-3.00;99.90;;;;;;5059195;28;20044;-72
2022/12/16 03:21:24;;;;;;;13.23;7.43;;;-3.00;99.90;;;;;;5055360;28;20071;-71
2022/12/16 03:24:01;;;;;;;14.50;8.30;;;-2.90;99.90;;;;;;5057488;28;20420;-72
2022/12/16 03:26:37;;;;;;;15.45;8.77;;;-2.90;99.90;;;;;;5032731;28;20047;-72
2022/12/16 03:29:17;;;;;;;13.60;7.68;;;-2.90;99.90;;;;;;5054503;28;20036;-73
2022/12/16 03:31:51;;;;;;;17.95;8.65;;;-2.90;99.90;;;;;;5039802;28;20025;-71
2022/12/16 03:34:45;;;;;;;18.58;9.02;;;-2.90;99.90;;;;;;5053293;28;20037;-72
2022/12/16 03:37:13;;;;;;;17.05;8.57;;;-2.90;99.90;;;;;;5057167;28;20297;-72
2022/12/16 03:39:48;;;;;;;15.98;8.55;;;-2.90;99.90;;;;;;5047836;28;20572;-72
2022/12/16 03:42:15;;;;;;;17.25;8.27;;;-2.90;99.90;;;;;;5059910;28;20109;-72
2022/12/16 03:44:43;;;;;;;18.20;8.60;;;-2.90;99.90;;;;;;5051004;28;20056;-72
2022/12/16 03:47:08;;;;;;;19.95;9.57;;;-2.90;99.90;;;;;;5056067;28;20111;-71
2022/12/16 03:49:34;;;;;;;14.70;8.00;;;-2.90;99.90;;;;;;5045752;28;20662;-72
2022/12/16 03:52:00;;;;;;;14.27;8.45;;;-2.90;99.90;;;;;;5051467;28;20551;-72
2022/12/16 03:54:25;;;;;;;12.98;8.05;;;-2.90;99.90;;;;;;5054708;28;20440;-72
2022/12/16 03:56:51;;;;;;;14.95;8.55;;;-2.90;99.90;;;;;;5052796;28;20301;-72
2022/12/16 03:59:17;;;;;;;18.17;9.63;;;-2.90;99.90;;;;;;5055379;28;20055;-72
2022/12/16 04:01:43;;;;;;;19.67;8.80;;;-2.90;99.90;;;;;;5054475;28;20028;-71
2022/12/16 04:04:08;;;;;;;15.30;8.30;;;-3.00;99.90;;;;;;5042922;28;20116;-72
2022/12/16 04:06:34;;;;;;;18.98;8.45;;;-3.00;99.90;;;;;;5037942;28;20535;-71
2022/12/16 04:09:00;;;;;;;16.75;8.60;;;-3.00;99.90;;;;;;5058821;28;20036;-72
2022/12/16 04:25:16;;;;;;;16.08;8.32;;;-3.00;99.90;;;;;;5050595;28;20467;-72
2022/12/16 04:27:48;;;;;;;17.38;8.88;;;-3.10;99.90;;;;;;5044350;28;20020;-72
2022/12/16 04:30:18;;;;;;;15.55;8.38;;;-3.10;99.90;;;;;;5048317;28;20040;-71
